Sveafjord — LCNI — position and weather

sailwx.info

Track history (hours):
 
Tides and Currents Weather Stations Pressure Air Temp Water Temp Dewpoint Dewpoint Depression Visibility Wind Speed Wind Dir Waves Ship Positions

Sveafjord

Last reported at 2018-May-25 04:30 UTC. Time now 2018-May-25 04:56 UTC.
Position N 63°01' E 007°43'.

Length 59 m; draft 4.5 m.

Type: Cargo ship. MMSI: 258340000.

Date/timePositionNaut miles runAvg speedWind from/ knotsBaromVisibWave heightAir tempDewpointWater temp
2018-May-25 04:30N 63°01' E 007°43'3 6.3
2018-May-25 04:00N 62°58' E 007°44'2 4.2
2018-May-25 03:30N 63°00' E 007°44'4 8.9
2018-May-25 03:00N 63°05' E 007°41'4 7.3
2018-May-25 02:30N 63°07' E 007°36'5 9.7
2018-May-25 02:00N 63°05' E 007°26'5 9.8
2018-May-25 01:30N 63°03' E 007°16'5 9.6
2018-May-25 01:00N 63°01' E 007°06'5 9.8
2018-May-25 00:30N 62°59' E 006°57'5 9.6
2018-May-25 00:00N 62°56' E 006°49'5 9.8
2018-May-24 23:30N 62°52' E 006°42'5 9.8
2018-May-24 23:00N 62°48' E 006°37'5 9.6
2018-May-24 22:30N 62°44' E 006°31'5 9.6
2018-May-24 22:00N 62°40' E 006°25'5 9.2
2018-May-24 21:30N 62°37' E 006°18'5 9.1
2018-May-24 21:00N 62°34' E 006°11'4 8.7
2018-May-24 20:30N 62°29' E 006°10'1 1.7
2018-May-24 19:58N 62°29' E 006°12'0 0.0
2018-May-24 19:28N 62°29' E 006°12'0 0.0
2018-May-24 18:58N 62°29' E 006°12'0 0.0
2018-May-24 18:28N 62°29' E 006°12'0 0.0
2018-May-24 17:58N 62°29' E 006°12'0 0.0
2018-May-24 17:28N 62°29' E 006°12'0 0.0
2018-May-24 16:58N 62°29' E 006°12'1 2.6
2018-May-24 16:30N 62°29' E 006°09'510.3
2018-May-24 16:00N 62°27' E 005°59'5 9.9
2018-May-24 15:31N 62°24' E 005°50'5 9.5
2018-May-24 15:00N 62°20' E 005°45'4 9.0
2018-May-24 14:30N 62°19' E 005°36'510.1
2018-May-24 14:00N 62°17' E 005°25'510.1
2018-May-24 13:30N 62°15' E 005°15'26 5.8
2018-May-24 09:00N 61°53' E 005°44'5 9.0
2018-May-24 08:30N 61°52' E 005°53'5 9.5
2018-May-24 08:00N 61°51' E 006°03'5 9.8
2018-May-24 07:30N 61°47' E 006°10'1 1.2
2018-May-24 06:58N 61°47' E 006°12'0 0.0
2018-May-24 06:28N 61°47' E 006°12'0 0.2
2018-May-24 06:00N 61°47' E 006°11'5 9.6
2018-May-24 05:30N 61°50' E 006°04'5 9.5
2018-May-24 05:00N 61°52' E 005°54'4 8.9
2018-May-24 04:30N 61°52' E 005°45'5 9.8
2018-May-24 03:59N 61°54' E 005°35'510.0
2018-May-24 03:30N 61°55' E 005°25'5 9.9
2018-May-24 03:00N 61°54' E 005°15'2 3.7
2018-May-24 02:29N 61°52' E 005°15'4 7.9
2018-May-24 02:00N 61°49' E 005°10'5 9.9
2018-May-24 01:30N 61°46' E 005°02'5 9.5
2018-May-24 01:00N 61°42' E 004°58'5 9.8
2018-May-24 00:30N 61°37' E 004°58'4 8.0
2018-May-24 00:00N 61°33' E 005°02'19 3.3
2018-May-23 18:14N 61°29' E 005°41'310.2
2018-May-23 17:59N 61°28' E 005°36'5 9.5
2018-May-23 17:28N 61°28' E 005°26'4 9.0
2018-May-23 16:59N 61°29' E 005°17'5 9.8
2018-May-23 16:27N 61°28' E 005°07'410.0
2018-May-23 16:01N 61°27' E 004°58'5 9.5
2018-May-23 15:29N 61°23' E 004°50'5 9.8
2018-May-23 15:00N 61°19' E 004°49'5 9.7
2018-May-23 14:30N 61°14' E 004°48'5 9.5
2018-May-23 14:00N 61°09' E 004°45'510.1
2018-May-23 13:30N 61°04' E 004°44'510.2
2018-May-23 13:00N 60°59' E 004°45'510.1
2018-May-23 12:30N 60°54' E 004°46'510.0
2018-May-23 12:00N 60°49' E 004°45'510.0
2018-May-23 11:30N 60°45' E 004°48'510.1
2018-May-23 11:00N 60°40' E 004°51'510.2
2018-May-23 10:30N 60°35' E 004°55'510.2
2018-May-23 10:00N 60°30' E 004°58'510.0
2018-May-23 09:30N 60°26' E 005°03'5 9.4
2018-May-23 09:00N 60°23' E 005°10'4 8.9
2018-May-23 08:30N 60°18' E 005°12'5 9.5
2018-May-23 08:00N 60°14' E 005°10'510.0
2018-May-23 07:30N 60°09' E 005°16'5 9.9
2018-May-23 07:00N 60°05' E 005°19'5 9.7
2018-May-23 06:30N 60°00' E 005°21'5 9.5
2018-May-23 06:00N 59°57' E 005°27'5 9.5
2018-May-23 05:30N 59°53' E 005°32'5 9.8
2018-May-23 05:00N 59°48' E 005°34'5 8.9
2018-May-23 04:30N 59°44' E 005°29'5 9.4
2018-May-23 04:00N 59°41' E 005°23'5 9.6
2018-May-23 03:30N 59°36' E 005°17'5 9.8
2018-May-23 03:00N 59°32' E 005°13'5 9.5
2018-May-23 02:30N 59°27' E 005°13'5 9.4
2018-May-23 02:00N 59°23' E 005°17'3 6.0
2018-May-23 01:29N 59°20' E 005°18'0 0.0
2018-May-23 01:00N 59°20' E 005°18'4 8.3
2018-May-23 00:30N 59°16' E 005°20'4 7.8
2018-May-23 00:00N 59°14' E 005°27'4 8.9
2018-May-22 23:30N 59°11' E 005°33'5 9.8
2018-May-22 23:00N 59°09' E 005°42'5 9.6
2018-May-22 22:30N 59°07' E 005°51'4 7.0
2018-May-22 22:00N 59°07' E 005°58'1 2.6
2018-May-22 21:30N 59°07' E 006°00'0 0.0
2018-May-22 21:00N 59°07' E 006°00'0 0.0
2018-May-22 20:30N 59°07' E 006°00'0 0.0
2018-May-22 20:00N 59°07' E 006°00'0 0.0
2018-May-22 19:30N 59°07' E 006°00'0 0.0
2018-May-22 19:00N 59°07' E 006°00'0 0.0
2018-May-22 18:30N 59°07' E 006°00'0 0.0
2018-May-22 18:00N 59°07' E 006°00'0 0.0
2018-May-22 17:30N 59°07' E 006°00'0 0.0
2018-May-22 17:00N 59°07' E 006°00'0 0.0
2018-May-22 16:30N 59°07' E 006°00'0 0.0
2018-May-22 16:00N 59°07' E 006°00'0 0.0
2018-May-22 15:30N 59°07' E 006°00'0 0.0
2018-May-22 15:00N 59°07' E 006°00'0 0.0
2018-May-22 14:30N 59°07' E 006°00'0 0.0
2018-May-22 14:00N 59°07' E 006°00'0 0.0
2018-May-22 13:30N 59°07' E 006°00'0 0.0
2018-May-22 13:00N 59°07' E 006°00'0 0.0
2018-May-22 12:30N 59°07' E 006°00'0 0.1
2018-May-22 12:00N 59°07' E 006°00'0 0.0
2018-May-22 11:30N 59°07' E 006°00'0 0.0
2018-May-22 11:00N 59°07' E 006°00'0 0.0
2018-May-22 10:30N 59°07' E 006°00'0 0.0
2018-May-22 10:00N 59°07' E 006°00'0 0.0
2018-May-22 09:30N 59°07' E 006°00'0 0.0
2018-May-22 08:57N 59°07' E 006°00'0 0.0
2018-May-22 08:30N 59°07' E 006°00'0 0.2
2018-May-22 08:00N 59°07' E 006°00'4 8.5
2018-May-22 07:30N 59°05' E 005°53'510.1
2018-May-22 07:00N 59°00' E 005°51'5 9.5
2018-May-22 06:30N 58°56' E 005°46'4 7.5
2018-May-22 05:59N 58°52' E 005°45'0 0.0
2018-May-22 05:29N 58°52' E 005°45'0 0.0
2018-May-22 04:59N 58°52' E 005°45'0 0.0
2018-May-22 04:29N 58°52' E 005°45'0 0.0
2018-May-22 03:59N 58°52' E 005°45'0 0.0
2018-May-22 03:29N 58°52' E 005°45'0 0.0
2018-May-22 02:59N 58°52' E 005°45'0 0.0
2018-May-22 02:29N 58°52' E 005°45'0 0.0
2018-May-22 01:59N 58°52' E 005°45'0 0.0
2018-May-22 01:29N 58°52' E 005°45'0 0.0
2018-May-22 00:59N 58°52' E 005°45'0 0.0
2018-May-22 00:29N 58°52' E 005°45'0 0.0
2018-May-21 23:59N 58°52' E 005°45'0 0.0
2018-May-21 23:29N 58°52' E 005°45'0 0.0
2018-May-21 22:59N 58°52' E 005°45'0 0.0
2018-May-21 22:29N 58°52' E 005°45'0 0.0
2018-May-21 21:59N 58°52' E 005°45'0 0.0
2018-May-21 21:29N 58°52' E 005°45'0 0.0
2018-May-21 20:59N 58°52' E 005°45'0 0.0
2018-May-21 20:29N 58°52' E 005°45'0 0.0
2018-May-21 19:56N 58°52' E 005°45'0 0.0
2018-May-21 19:29N 58°52' E 005°45'0 0.0
2018-May-21 18:59N 58°52' E 005°45'0 0.0
2018-May-21 18:29N 58°52' E 005°45'0 0.0
2018-May-21 17:59N 58°52' E 005°45'0 0.0
2018-May-21 17:29N 58°52' E 005°45'0 0.0
2018-May-21 16:59N 58°52' E 005°45'0 0.0
2018-May-21 16:29N 58°52' E 005°45'0 0.0
2018-May-21 15:59N 58°52' E 005°45'0 0.0
2018-May-21 15:29N 58°52' E 005°45'0 0.0
2018-May-21 14:59N 58°52' E 005°45'0 0.0
2018-May-21 14:29N 58°52' E 005°45'0 0.0
2018-May-21 13:59N 58°52' E 005°45'0 0.0
2018-May-21 13:29N 58°52' E 005°45'0 0.0
2018-May-21 12:59N 58°52' E 005°45'0 0.0
2018-May-21 12:29N 58°52' E 005°45'0 0.0
2018-May-21 11:59N 58°52' E 005°45'0 0.0
2018-May-21 11:29N 58°52' E 005°45'0 0.0
2018-May-21 10:59N 58°52' E 005°45'0 0.0
2018-May-21 10:29N 58°52' E 005°45'0 0.0
2018-May-21 09:59N 58°52' E 005°45'0 0.0
2018-May-21 09:29N 58°52' E 005°45'0 0.0
2018-May-21 08:59N 58°52' E 005°45'0 0.0
2018-May-21 08:29N 58°52' E 005°45'0 0.0
2018-May-21 07:59N 58°52' E 005°45'0 0.0
2018-May-21 07:29N 58°52' E 005°45'0 0.0
2018-May-21 06:59N 58°52' E 005°45'0 0.0
2018-May-21 06:29N 58°52' E 005°45'0 0.0
2018-May-21 05:59N 58°52' E 005°45'0 0.0
2018-May-21 05:29N 58°52' E 005°45'0 0.0
2018-May-21 04:59N 58°52' E 005°45'0 0.0
2018-May-21 04:29N 58°52' E 005°45'0 0.0
2018-May-21 03:59N 58°52' E 005°45'0 0.0
2018-May-21 03:29N 58°52' E 005°45'0 0.0
2018-May-21 02:59N 58°52' E 005°45'3 6.0
2018-May-21 02:31N 58°55' E 005°46'510.1
2018-May-21 02:01N 58°60' E 005°48'4 8.9
2018-May-21 01:30N 59°04' E 005°44'611.2
2018-May-21 01:00N 59°07' E 005°35'4 9.1
2018-May-21 00:31N 59°11' E 005°30'510.1
2018-May-21 00:01N 59°15' E 005°25'4 7.4
2018-May-20 23:31N 59°18' E 005°20'5 9.4
2018-May-20 23:01N 59°22' E 005°18'3 5.7
2018-May-20 22:30N 59°25' E 005°15'1 2.7
2018-May-20 22:00N 59°26' E 005°14'5 9.7
2018-May-20 21:30N 59°31' E 005°13'5 9.3
2018-May-20 21:00N 59°35' E 005°16'5 9.8
2018-May-20 20:30N 59°39' E 005°21'5 9.7
2018-May-20 19:59N 59°43' E 005°27'4 8.4
2018-May-20 19:30N 59°47' E 005°31'2 3.8
2018-May-20 18:58N 59°48' E 005°33'4 9.3
2018-May-20 18:30N 59°53' E 005°32'4 8.6
2018-May-20 18:00N 59°56' E 005°28'4 8.6
2018-May-20 17:30N 59°59' E 005°21'4 8.5
2018-May-20 17:00N 60°03' E 005°19'5 9.2
2018-May-20 16:30N 60°08' E 005°17'5 9.9
2018-May-20 16:00N 60°12' E 005°12'5 9.3
2018-May-20 15:31N 60°16' E 005°09'5 9.3
2018-May-20 15:00N 60°21' E 005°10'4 8.4
2018-May-20 14:30N 60°24' E 005°16'2 4.2
2018-May-20 14:00N 60°23' E 005°19'0 0.3
2018-May-20 13:30N 60°23' E 005°19'0 0.0
2018-May-20 13:00N 60°23' E 005°19'0 0.0
2018-May-20 12:30N 60°23' E 005°19'0 0.0
2018-May-20 12:00N 60°23' E 005°19'0 0.0
2018-May-20 11:30N 60°23' E 005°19'0 0.2
2018-May-20 10:59N 60°23' E 005°19'4 8.5
2018-May-20 10:30N 60°27' E 005°15'4 8.3
2018-May-20 09:59N 60°31' E 005°11'4 8.8
2018-May-20 09:30N 60°32' E 005°03'2 3.8
2018-May-20 08:59N 60°33' E 004°59'0 0.6
2018-May-20 08:30N 60°33' E 004°59'4 8.1
2018-May-20 07:59N 60°37' E 004°56'4 8.0
2018-May-20 07:30N 60°41' E 004°52'4 8.0
2018-May-20 07:00N 60°44' E 004°49'4 8.4
2018-May-20 06:30N 60°48' E 004°45'4 7.9
2018-May-20 05:59N 60°52' E 004°46'4 8.8
2018-May-20 05:29N 60°57' E 004°45'4 8.5
2018-May-20 04:59N 61°00' E 004°49'5 9.7
2018-May-20 04:29N 61°03' E 004°57'4 9.1
2018-May-20 04:00N 61°07' E 005°02'4 8.9
2018-May-20 03:30N 61°12' E 005°01'4 8.4
2018-May-20 03:00N 61°15' E 004°55'4 7.9
2018-May-20 02:30N 61°18' E 005°00'4 7.6
2018-May-20 02:00N 61°22' E 005°02'4 9.0
2018-May-20 01:30N 61°26' E 004°58'5 9.4
2018-May-20 01:00N 61°30' E 004°60'5 8.9
2018-May-20 00:30N 61°35' E 004°57'4 9.1
2018-May-20 00:00N 61°39' E 004°59'5 8.8
2018-May-19 23:29N 61°44' E 004°58'4 9.1
2018-May-19 23:00N 61°47' E 005°05'5 9.0
2018-May-19 22:29N 61°49' E 005°13'3 6.0
2018-May-19 22:00N 61°52' E 005°13'2 4.0
2018-May-19 21:30N 61°54' E 005°16'5 9.8
2018-May-19 21:00N 61°55' E 005°26'510.0
2018-May-19 20:30N 61°54' E 005°36'510.0
2018-May-19 20:00N 61°52' E 005°46'5 9.4
2018-May-19 19:30N 61°52' E 005°56'5 9.6
2018-May-19 19:00N 61°51' E 006°06'0 0.6
2018-May-19 18:30N 61°50' E 006°06'0 0.0
2018-May-19 18:00N 61°50' E 006°06'0 0.0
2018-May-19 17:30N 61°50' E 006°06'0 0.0
2018-May-19 17:00N 61°50' E 006°06'0 0.1
2018-May-19 16:30N 61°50' E 006°06'4 8.4
2018-May-19 16:00N 61°52' E 005°57'5 9.1
2018-May-19 15:30N 61°51' E 005°47'5 9.3
2018-May-19 15:00N 61°54' E 005°39'5 9.7
2018-May-19 14:30N 61°55' E 005°29'4 9.1
2018-May-19 14:00N 61°54' E 005°20'5 9.3
2018-May-19 13:30N 61°54' E 005°10'4 7.4
2018-May-19 13:00N 61°57' E 005°09'4 9.0
2018-May-19 12:30N 62°02' E 005°09'5 9.9
2018-May-19 12:00N 62°07' E 005°06'5 9.2
2018-May-19 11:30N 62°11' E 005°04'5 9.0
2018-May-19 11:00N 62°14' E 005°12'5 9.2
2018-May-19 10:30N 62°16' E 005°20'5 9.4
2018-May-19 10:00N 62°18' E 005°29'5 9.3
2018-May-19 09:30N 62°19' E 005°39'1 1.4
2018-May-19 09:00N 62°19' E 005°40'2 4.0
2018-May-19 08:29N 62°20' E 005°45'5 9.4
2018-May-19 08:00N 62°24' E 005°49'5 9.7
2018-May-19 07:30N 62°27' E 005°58'5 9.8
2018-May-19 07:00N 62°29' E 006°08'1 1.1
2018-May-19 06:29N 62°29' E 006°09'0 0.0
2018-May-19 05:59N 62°29' E 006°09'0 0.0
2018-May-19 05:29N 62°29' E 006°09'0 0.0
2018-May-19 04:59N 62°29' E 006°09'0 0.0
2018-May-19 04:29N 62°29' E 006°09'0 0.0
2018-May-19 03:59N 62°29' E 006°09'0 0.0
2018-May-19 03:29N 62°29' E 006°09'0 0.0
2018-May-19 02:59N 62°29' E 006°09'0 0.0
2018-May-19 02:29N 62°29' E 006°09'0 0.0
2018-May-19 01:59N 62°29' E 006°09'0 0.0
2018-May-19 01:29N 62°29' E 006°09'1 2.5
2018-May-19 01:00N 62°29' E 006°11'0 0.8
2018-May-19 00:30N 62°29' E 006°12'0 0.0
2018-May-19 00:00N 62°29' E 006°12'0 0.0
2018-May-18 23:30N 62°29' E 006°12'0 0.0
2018-May-18 23:00N 62°29' E 006°12'0 0.0
2018-May-18 22:30N 62°29' E 006°12'0 0.3
2018-May-18 22:00N 62°29' E 006°12'4 7.6
2018-May-18 21:30N 62°33' E 006°10'5 9.3
2018-May-18 21:00N 62°36' E 006°17'5 9.5
2018-May-18 20:30N 62°39' E 006°24'5 9.8
2018-May-18 20:00N 62°43' E 006°30'5 9.7
2018-May-18 19:30N 62°48' E 006°36'5 9.4
2018-May-18 19:00N 62°52' E 006°42'5 9.4
2018-May-18 18:30N 62°55' E 006°48'5 9.1
2018-May-18 18:00N 62°59' E 006°54'5 9.5
2018-May-18 17:30N 63°00' E 007°04'5 9.8
2018-May-18 17:01N 63°02' E 007°14'5 9.8
2018-May-18 16:31N 63°04' E 007°24'510.0
2018-May-18 16:00N 63°07' E 007°33'5 9.8
2018-May-18 15:31N 63°09' E 007°42'5 9.9
2018-May-18 15:01N 63°12' E 007°52'5 9.9
2018-May-18 14:30N 63°14' E 008°01'5 9.7
2018-May-18 14:00N 63°17' E 008°11'5 9.5
2018-May-18 13:28N 63°20' E 008°20'3 6.0
2018-May-18 13:00N 63°20' E 008°26'0 0.0
2018-May-18 12:30N 63°20' E 008°26'4 8.2
2018-May-18 12:00N 63°23' E 008°19'510.2
2018-May-18 11:30N 63°27' E 008°14'5 9.9
2018-May-18 10:59N 63°32' E 008°14'5 9.6
2018-May-18 10:30N 63°36' E 008°18'4 8.9
2018-May-18 10:00N 63°38' E 008°27'4 8.6
2018-May-18 09:30N 63°39' E 008°36'4 8.3
2018-May-18 09:00N 63°40' E 008°46'4 8.6
2018-May-18 08:30N 63°42' E 008°54'5 9.3
2018-May-18 07:59N 63°47' E 008°58'3 5.9
2018-May-18 07:30N 63°48' E 008°52'2 3.8
2018-May-18 07:00N 63°46' E 008°49'0 0.0
2018-May-18 06:30N 63°46' E 008°49'0 0.0
2018-May-18 06:00N 63°46' E 008°49'0 0.0
2018-May-18 05:30N 63°46' E 008°49'0 0.4
2018-May-18 05:00N 63°46' E 008°49'4 8.6
2018-May-18 04:30N 63°49' E 008°57'5 9.6
2018-May-18 04:00N 63°52' E 009°06'5 9.6
2018-May-18 03:30N 63°54' E 009°16'5 9.8
2018-May-18 03:00N 63°57' E 009°25'5 9.8
2018-May-18 02:30N 63°59' E 009°35'5 9.7
2018-May-18 02:00N 64°02' E 009°44'5 9.4
2018-May-18 01:30N 64°04' E 009°53'5 9.4
2018-May-18 01:00N 64°07' E 010°02'5 9.2
2018-May-18 00:29N 64°11' E 010°09'5 9.2
2018-May-18 00:00N 64°14' E 010°15'4 8.4
2018-May-17 23:29N 64°18' E 010°21'4 8.5
2018-May-17 22:59N 64°21' E 010°26'4 8.6
2018-May-17 22:30N 64°25' E 010°27'4 8.7
2018-May-17 22:00N 64°29' E 010°32'5 9.2
2018-May-17 21:30N 64°33' E 010°37'4 9.2
2018-May-17 21:00N 64°37' E 010°43'5 9.3
2018-May-17 20:29N 64°41' E 010°49'5 9.2
2018-May-17 19:59N 64°44' E 010°57'5 9.2
2018-May-17 19:30N 64°47' E 011°05'4 9.1
2018-May-17 19:00N 64°50' E 011°12'2 3.8
2018-May-17 18:30N 64°52' E 011°15'0 0.0
2018-May-17 18:00N 64°52' E 011°15'0 0.0
2018-May-17 17:30N 64°52' E 011°15'0 0.0
2018-May-17 17:00N 64°52' E 011°15'0 0.0
2018-May-17 16:30N 64°52' E 011°15'0 0.0
2018-May-17 16:00N 64°52' E 011°15'0 0.0
2018-May-17 15:30N 64°52' E 011°15'0 0.0
2018-May-17 15:00N 64°52' E 011°15'0 0.0
2018-May-17 14:30N 64°52' E 011°15'0 0.0
2018-May-17 14:00N 64°52' E 011°15'0 0.0
2018-May-17 13:30N 64°52' E 011°15'0 0.0
2018-May-17 13:00N 64°52' E 011°15'0 0.0
2018-May-17 12:30N 64°52' E 011°15'0 0.0
2018-May-17 12:00N 64°52' E 011°15'0 0.0
2018-May-17 11:30N 64°52' E 011°15'0 0.0
2018-May-17 11:00N 64°52' E 011°15'0 0.0
2018-May-17 10:30N 64°52' E 011°15'0 0.0
2018-May-17 10:00N 64°52' E 011°15'0 0.0
2018-May-17 09:30N 64°52' E 011°15'0 0.0
2018-May-17 09:00N 64°52' E 011°15'0 0.0
2018-May-17 08:30N 64°52' E 011°15'0 0.0
2018-May-17 08:00N 64°52' E 011°15'0 0.0
2018-May-17 07:30N 64°52' E 011°15'0 0.0
2018-May-17 07:00N 64°52' E 011°15'0 0.0
2018-May-17 06:30N 64°52' E 011°15'0 0.0
2018-May-17 06:00N 64°52' E 011°15'0 0.0
2018-May-17 05:30N 64°52' E 011°15'0 0.0
2018-May-17 05:00N 64°52' E 011°15'0 0.0
2018-May-17 04:30N 64°52' E 011°15'0 0.0
2018-May-17 04:00N 64°52' E 011°15'0 0.0
2018-May-17 03:30N 64°52' E 011°15'0 0.0
2018-May-17 03:00N 64°52' E 011°15'0 0.0
2018-May-17 02:30N 64°52' E 011°15'0 0.0
2018-May-17 02:00N 64°52' E 011°15'0 0.0
2018-May-17 01:30N 64°52' E 011°15'0 0.0
2018-May-17 01:00N 64°52' E 011°15'0 0.0
2018-May-17 00:30N 64°52' E 011°15'0 0.0
2018-May-17 00:00N 64°52' E 011°15'0 0.0
2018-May-16 23:30N 64°52' E 011°15'0 0.0
2018-May-16 23:00N 64°52' E 011°15'0 0.0
2018-May-16 22:30N 64°52' E 011°15'0 0.0
2018-May-16 22:00N 64°52' E 011°15'0 0.0
2018-May-16 21:30N 64°52' E 011°15'0 0.0
2018-May-16 21:00N 64°52' E 011°15'0 0.0
2018-May-16 20:30N 64°52' E 011°15'0 0.0
2018-May-16 20:00N 64°52' E 011°15'0 0.0
2018-May-16 19:30N 64°52' E 011°15'0 0.0
2018-May-16 19:00N 64°52' E 011°15'0 0.0
2018-May-16 18:30N 64°52' E 011°15'0 0.0
2018-May-16 18:00N 64°52' E 011°15'0 0.0
2018-May-16 17:30N 64°52' E 011°15'0 0.0
2018-May-16 17:00N 64°52' E 011°15'0 0.0
2018-May-16 16:30N 64°52' E 011°15'0 0.0
2018-May-16 16:00N 64°52' E 011°15'0 0.0
2018-May-16 15:27N 64°52' E 011°15'0 0.0
2018-May-16 15:00N 64°52' E 011°15'0 0.0
2018-May-16 14:30N 64°52' E 011°15'0 0.0
2018-May-16 14:00N 64°52' E 011°15'0 0.0
2018-May-16 13:30N 64°52' E 011°15'0 0.0
2018-May-16 13:00N 64°52' E 011°15'0 0.0
2018-May-16 12:30N 64°52' E 011°15'0 0.0
2018-May-16 12:00N 64°52' E 011°15'0 0.0
2018-May-16 11:30N 64°52' E 011°15'0 0.0
2018-May-16 11:00N 64°52' E 011°15'0 0.0
2018-May-16 10:30N 64°52' E 011°15'0 0.0
2018-May-16 10:00N 64°52' E 011°15'0 0.0
2018-May-16 09:30N 64°52' E 011°15'0 0.0
2018-May-16 09:00N 64°52' E 011°15'0 0.0
2018-May-16 08:30N 64°52' E 011°15'0 0.0
2018-May-16 08:00N 64°52' E 011°15'0 0.4
2018-May-16 07:30N 64°52' E 011°15'0 0.1
2018-May-16 07:00N 64°52' E 011°15'0 0.0
2018-May-16 06:30N 64°52' E 011°15'0 0.0
2018-May-16 06:00N 64°52' E 011°15'0 0.0
2018-May-16 05:30N 64°52' E 011°15'2 3.3
2018-May-16 05:00N 64°53' E 011°18'5 9.9
2018-May-16 04:30N 64°56' E 011°26'5 9.6
2018-May-16 04:00N 64°59' E 011°35'5 9.7
2018-May-16 03:30N 65°03' E 011°43'5 9.8
2018-May-16 03:00N 65°07' E 011°49'5 9.8
2018-May-16 02:30N 65°12' E 011°52'5 9.4
2018-May-16 02:00N 65°16' E 011°56'5 9.7
2018-May-16 01:30N 65°20' E 012°02'5 9.9
2018-May-16 01:00N 65°24' E 012°08'5 8.7
2018-May-16 00:29N 65°28' E 012°12'4 8.3
2018-May-15 23:59N 65°33' E 012°12'5 9.6
2018-May-15 23:30N 65°37' E 012°14'5 9.6
2018-May-15 23:00N 65°42' E 012°16'5 9.7
2018-May-15 22:30N 65°47' E 012°19'5 9.5
2018-May-15 22:00N 65°51' E 012°22'5 9.3
2018-May-15 21:30N 65°56' E 012°24'5 9.8
2018-May-15 21:00N 65°60' E 012°30'510.3
2018-May-15 20:30N 66°04' E 012°39'5 9.9
2018-May-15 20:00N 66°08' E 012°46'510.0
2018-May-15 19:30N 66°12' E 012°52'5 9.7
2018-May-15 19:00N 66°17' E 012°55'510.0
2018-May-15 18:30N 66°22' E 012°57'510.1
2018-May-15 18:00N 66°27' E 012°59'5 9.9
2018-May-15 17:30N 66°32' E 012°58'4 8.9
2018-May-15 17:00N 66°35' E 013°04'5 9.4
2018-May-15 16:30N 66°40' E 013°08'5 9.6
2018-May-15 16:00N 66°44' E 013°14'5 9.6
2018-May-15 15:30N 66°45' E 013°26'2 3.3
2018-May-15 14:59N 66°45' E 013°30'0 0.0
2018-May-15 14:29N 66°45' E 013°30'0 0.0
2018-May-15 13:59N 66°45' E 013°30'0 0.0
2018-May-15 13:29N 66°45' E 013°30'0 0.0
2018-May-15 12:53N 66°45' E 013°30'0 0.0
2018-May-15 12:26N 66°45' E 013°30'0 0.0
2018-May-15 11:59N 66°45' E 013°30'0 0.0
2018-May-15 11:29N 66°45' E 013°30'0 0.0
2018-May-15 10:59N 66°45' E 013°30'0 0.5
2018-May-15 10:30N 66°45' E 013°30'4 7.6
2018-May-15 10:00N 66°49' E 013°30'4 7.9
2018-May-15 09:30N 66°52' E 013°33'5 9.5
2018-May-15 09:00N 66°57' E 013°29'5 9.5
2018-May-15 08:30N 67°02' E 013°30'5 9.7
2018-May-15 08:00N 67°07' E 013°31'5 9.8
2018-May-15 07:30N 67°11' E 013°33'5 9.9
2018-May-15 06:59N 67°16' E 013°35'5 9.9
2018-May-15 06:30N 67°21' E 013°40'510.1
2018-May-15 06:00N 67°25' E 013°46'5 9.8
2018-May-15 05:30N 67°30' E 013°52'5 9.6
2018-May-15 05:00N 67°34' E 013°58'5 9.8
2018-May-15 04:30N 67°38' E 014°04'  
Track history (hours):
 
Tides and Currents Weather Stations Pressure Air Temp Water Temp Dewpoint Dewpoint Depression Visibility Wind Speed Wind Dir Waves Ship Positions

Sveafjord

Last reported at 2018-May-25 04:30 UTC. Time now 2018-May-25 04:56 UTC.
Position N 63°01' E 007°43'.

Length 59 m; draft 4.5 m.

Type: Cargo ship. MMSI: 258340000.

Date/timePositionNaut miles runAvg speedWind from/ knotsBaromVisibWave heightAir tempDewpointWater temp
2018-May-25 04:30N 63°01' E 007°43'3 6.3
2018-May-25 04:00N 62°58' E 007°44'2 4.2
2018-May-25 03:30N 63°00' E 007°44'4 8.9
2018-May-25 03:00N 63°05' E 007°41'4 7.3
2018-May-25 02:30N 63°07' E 007°36'5 9.7
2018-May-25 02:00N 63°05' E 007°26'5 9.8
2018-May-25 01:30N 63°03' E 007°16'5 9.6
2018-May-25 01:00N 63°01' E 007°06'5 9.8
2018-May-25 00:30N 62°59' E 006°57'5 9.6
2018-May-25 00:00N 62°56' E 006°49'5 9.8
2018-May-24 23:30N 62°52' E 006°42'5 9.8
2018-May-24 23:00N 62°48' E 006°37'5 9.6
2018-May-24 22:30N 62°44' E 006°31'5 9.6
2018-May-24 22:00N 62°40' E 006°25'5 9.2
2018-May-24 21:30N 62°37' E 006°18'5 9.1
2018-May-24 21:00N 62°34' E 006°11'4 8.7
2018-May-24 20:30N 62°29' E 006°10'1 1.7
2018-May-24 19:58N 62°29' E 006°12'0 0.0
2018-May-24 19:28N 62°29' E 006°12'0 0.0
2018-May-24 18:58N 62°29' E 006°12'0 0.0
2018-May-24 18:28N 62°29' E 006°12'0 0.0
2018-May-24 17:58N 62°29' E 006°12'0 0.0
2018-May-24 17:28N 62°29' E 006°12'0 0.0
2018-May-24 16:58N 62°29' E 006°12'1 2.6
2018-May-24 16:30N 62°29' E 006°09'510.3
2018-May-24 16:00N 62°27' E 005°59'5 9.9
2018-May-24 15:31N 62°24' E 005°50'5 9.5
2018-May-24 15:00N 62°20' E 005°45'4 9.0
2018-May-24 14:30N 62°19' E 005°36'510.1
2018-May-24 14:00N 62°17' E 005°25'510.1
2018-May-24 13:30N 62°15' E 005°15'26 5.8
2018-May-24 09:00N 61°53' E 005°44'5 9.0
2018-May-24 08:30N 61°52' E 005°53'5 9.5
2018-May-24 08:00N 61°51' E 006°03'5 9.8
2018-May-24 07:30N 61°47' E 006°10'1 1.2
2018-May-24 06:58N 61°47' E 006°12'0 0.0
2018-May-24 06:28N 61°47' E 006°12'0 0.2
2018-May-24 06:00N 61°47' E 006°11'5 9.6
2018-May-24 05:30N 61°50' E 006°04'5 9.5
2018-May-24 05:00N 61°52' E 005°54'4 8.9
2018-May-24 04:30N 61°52' E 005°45'5 9.8
2018-May-24 03:59N 61°54' E 005°35'510.0
2018-May-24 03:30N 61°55' E 005°25'5 9.9
2018-May-24 03:00N 61°54' E 005°15'2 3.7
2018-May-24 02:29N 61°52' E 005°15'4 7.9
2018-May-24 02:00N 61°49' E 005°10'5 9.9
2018-May-24 01:30N 61°46' E 005°02'5 9.5
2018-May-24 01:00N 61°42' E 004°58'5 9.8
2018-May-24 00:30N 61°37' E 004°58'4 8.0
2018-May-24 00:00N 61°33' E 005°02'19 3.3
2018-May-23 18:14N 61°29' E 005°41'310.2
2018-May-23 17:59N 61°28' E 005°36'5 9.5
2018-May-23 17:28N 61°28' E 005°26'4 9.0
2018-May-23 16:59N 61°29' E 005°17'5 9.8
2018-May-23 16:27N 61°28' E 005°07'410.0
2018-May-23 16:01N 61°27' E 004°58'5 9.5
2018-May-23 15:29N 61°23' E 004°50'5 9.8
2018-May-23 15:00N 61°19' E 004°49'5 9.7
2018-May-23 14:30N 61°14' E 004°48'5 9.5
2018-May-23 14:00N 61°09' E 004°45'510.1
2018-May-23 13:30N 61°04' E 004°44'510.2
2018-May-23 13:00N 60°59' E 004°45'510.1
2018-May-23 12:30N 60°54' E 004°46'510.0
2018-May-23 12:00N 60°49' E 004°45'510.0
2018-May-23 11:30N 60°45' E 004°48'510.1
2018-May-23 11:00N 60°40' E 004°51'510.2
2018-May-23 10:30N 60°35' E 004°55'510.2
2018-May-23 10:00N 60°30' E 004°58'510.0
2018-May-23 09:30N 60°26' E 005°03'5 9.4
2018-May-23 09:00N 60°23' E 005°10'4 8.9
2018-May-23 08:30N 60°18' E 005°12'5 9.5
2018-May-23 08:00N 60°14' E 005°10'510.0
2018-May-23 07:30N 60°09' E 005°16'5 9.9
2018-May-23 07:00N 60°05' E 005°19'5 9.7
2018-May-23 06:30N 60°00' E 005°21'5 9.5
2018-May-23 06:00N 59°57' E 005°27'5 9.5
2018-May-23 05:30N 59°53' E 005°32'5 9.8
2018-May-23 05:00N 59°48' E 005°34'5 8.9
2018-May-23 04:30N 59°44' E 005°29'5 9.4
2018-May-23 04:00N 59°41' E 005°23'5 9.6
2018-May-23 03:30N 59°36' E 005°17'5 9.8
2018-May-23 03:00N 59°32' E 005°13'5 9.5
2018-May-23 02:30N 59°27' E 005°13'5 9.4
2018-May-23 02:00N 59°23' E 005°17'3 6.0
2018-May-23 01:29N 59°20' E 005°18'0 0.0
2018-May-23 01:00N 59°20' E 005°18'4 8.3
2018-May-23 00:30N 59°16' E 005°20'4 7.8
2018-May-23 00:00N 59°14' E 005°27'4 8.9
2018-May-22 23:30N 59°11' E 005°33'5 9.8
2018-May-22 23:00N 59°09' E 005°42'5 9.6
2018-May-22 22:30N 59°07' E 005°51'4 7.0
2018-May-22 22:00N 59°07' E 005°58'1 2.6
2018-May-22 21:30N 59°07' E 006°00'0 0.0
2018-May-22 21:00N 59°07' E 006°00'0 0.0
2018-May-22 20:30N 59°07' E 006°00'0 0.0
2018-May-22 20:00N 59°07' E 006°00'0 0.0
2018-May-22 19:30N 59°07' E 006°00'0 0.0
2018-May-22 19:00N 59°07' E 006°00'0 0.0
2018-May-22 18:30N 59°07' E 006°00'0 0.0
2018-May-22 18:00N 59°07' E 006°00'0 0.0
2018-May-22 17:30N 59°07' E 006°00'0 0.0
2018-May-22 17:00N 59°07' E 006°00'0 0.0
2018-May-22 16:30N 59°07' E 006°00'0 0.0
2018-May-22 16:00N 59°07' E 006°00'0 0.0
2018-May-22 15:30N 59°07' E 006°00'0 0.0
2018-May-22 15:00N 59°07' E 006°00'0 0.0
2018-May-22 14:30N 59°07' E 006°00'0 0.0
2018-May-22 14:00N 59°07' E 006°00'0 0.0
2018-May-22 13:30N 59°07' E 006°00'0 0.0
2018-May-22 13:00N 59°07' E 006°00'0 0.0
2018-May-22 12:30N 59°07' E 006°00'0 0.1
2018-May-22 12:00N 59°07' E 006°00'0 0.0
2018-May-22 11:30N 59°07' E 006°00'0 0.0
2018-May-22 11:00N 59°07' E 006°00'0 0.0
2018-May-22 10:30N 59°07' E 006°00'0 0.0
2018-May-22 10:00N 59°07' E 006°00'0 0.0
2018-May-22 09:30N 59°07' E 006°00'0 0.0
2018-May-22 08:57N 59°07' E 006°00'0 0.0
2018-May-22 08:30N 59°07' E 006°00'0 0.2
2018-May-22 08:00N 59°07' E 006°00'4 8.5
2018-May-22 07:30N 59°05' E 005°53'510.1
2018-May-22 07:00N 59°00' E 005°51'5 9.5
2018-May-22 06:30N 58°56' E 005°46'4 7.5
2018-May-22 05:59N 58°52' E 005°45'0 0.0
2018-May-22 05:29N 58°52' E 005°45'0 0.0
2018-May-22 04:59N 58°52' E 005°45'0 0.0
2018-May-22 04:29N 58°52' E 005°45'0 0.0
2018-May-22 03:59N 58°52' E 005°45'0 0.0
2018-May-22 03:29N 58°52' E 005°45'0 0.0
2018-May-22 02:59N 58°52' E 005°45'0 0.0
2018-May-22 02:29N 58°52' E 005°45'0 0.0
2018-May-22 01:59N 58°52' E 005°45'0 0.0
2018-May-22 01:29N 58°52' E 005°45'0 0.0
2018-May-22 00:59N 58°52' E 005°45'0 0.0
2018-May-22 00:29N 58°52' E 005°45'0 0.0
2018-May-21 23:59N 58°52' E 005°45'0 0.0
2018-May-21 23:29N 58°52' E 005°45'0 0.0
2018-May-21 22:59N 58°52' E 005°45'0 0.0
2018-May-21 22:29N 58°52' E 005°45'0 0.0
2018-May-21 21:59N 58°52' E 005°45'0 0.0
2018-May-21 21:29N 58°52' E 005°45'0 0.0
2018-May-21 20:59N 58°52' E 005°45'0 0.0
2018-May-21 20:29N 58°52' E 005°45'0 0.0
2018-May-21 19:56N 58°52' E 005°45'0 0.0
2018-May-21 19:29N 58°52' E 005°45'0 0.0
2018-May-21 18:59N 58°52' E 005°45'0 0.0
2018-May-21 18:29N 58°52' E 005°45'0 0.0
2018-May-21 17:59N 58°52' E 005°45'0 0.0
2018-May-21 17:29N 58°52' E 005°45'0 0.0
2018-May-21 16:59N 58°52' E 005°45'0 0.0
2018-May-21 16:29N 58°52' E 005°45'0 0.0
2018-May-21 15:59N 58°52' E 005°45'0 0.0
2018-May-21 15:29N 58°52' E 005°45'0 0.0
2018-May-21 14:59N 58°52' E 005°45'0 0.0
2018-May-21 14:29N 58°52' E 005°45'0 0.0
2018-May-21 13:59N 58°52' E 005°45'0 0.0
2018-May-21 13:29N 58°52' E 005°45'0 0.0
2018-May-21 12:59N 58°52' E 005°45'0 0.0
2018-May-21 12:29N 58°52' E 005°45'0 0.0
2018-May-21 11:59N 58°52' E 005°45'0 0.0
2018-May-21 11:29N 58°52' E 005°45'0 0.0
2018-May-21 10:59N 58°52' E 005°45'0 0.0
2018-May-21 10:29N 58°52' E 005°45'0 0.0
2018-May-21 09:59N 58°52' E 005°45'0 0.0
2018-May-21 09:29N 58°52' E 005°45'0 0.0
2018-May-21 08:59N 58°52' E 005°45'0 0.0
2018-May-21 08:29N 58°52' E 005°45'0 0.0
2018-May-21 07:59N 58°52' E 005°45'0 0.0
2018-May-21 07:29N 58°52' E 005°45'0 0.0
2018-May-21 06:59N 58°52' E 005°45'0 0.0
2018-May-21 06:29N 58°52' E 005°45'0 0.0
2018-May-21 05:59N 58°52' E 005°45'0 0.0
2018-May-21 05:29N 58°52' E 005°45'0 0.0
2018-May-21 04:59N 58°52' E 005°45'0 0.0
2018-May-21 04:29N 58°52' E 005°45'0 0.0
2018-May-21 03:59N 58°52' E 005°45'0 0.0
2018-May-21 03:29N 58°52' E 005°45'0 0.0
2018-May-21 02:59N 58°52' E 005°45'3 6.0
2018-May-21 02:31N 58°55' E 005°46'510.1
2018-May-21 02:01N 58°60' E 005°48'4 8.9
2018-May-21 01:30N 59°04' E 005°44'611.2
2018-May-21 01:00N 59°07' E 005°35'4 9.1
2018-May-21 00:31N 59°11' E 005°30'510.1
2018-May-21 00:01N 59°15' E 005°25'4 7.4
2018-May-20 23:31N 59°18' E 005°20'5 9.4
2018-May-20 23:01N 59°22' E 005°18'3 5.7
2018-May-20 22:30N 59°25' E 005°15'1 2.7
2018-May-20 22:00N 59°26' E 005°14'5 9.7
2018-May-20 21:30N 59°31' E 005°13'5 9.3
2018-May-20 21:00N 59°35' E 005°16'5 9.8
2018-May-20 20:30N 59°39' E 005°21'5 9.7
2018-May-20 19:59N 59°43' E 005°27'4 8.4
2018-May-20 19:30N 59°47' E 005°31'2 3.8
2018-May-20 18:58N 59°48' E 005°33'4 9.3
2018-May-20 18:30N 59°53' E 005°32'4 8.6
2018-May-20 18:00N 59°56' E 005°28'4 8.6
2018-May-20 17:30N 59°59' E 005°21'4 8.5
2018-May-20 17:00N 60°03' E 005°19'5 9.2
2018-May-20 16:30N 60°08' E 005°17'5 9.9
2018-May-20 16:00N 60°12' E 005°12'5 9.3
2018-May-20 15:31N 60°16' E 005°09'5 9.3
2018-May-20 15:00N 60°21' E 005°10'4 8.4
2018-May-20 14:30N 60°24' E 005°16'2 4.2
2018-May-20 14:00N 60°23' E 005°19'0 0.3
2018-May-20 13:30N 60°23' E 005°19'0 0.0
2018-May-20 13:00N 60°23' E 005°19'0 0.0
2018-May-20 12:30N 60°23' E 005°19'0 0.0
2018-May-20 12:00N 60°23' E 005°19'0 0.0
2018-May-20 11:30N 60°23' E 005°19'0 0.2
2018-May-20 10:59N 60°23' E 005°19'4 8.5
2018-May-20 10:30N 60°27' E 005°15'4 8.3
2018-May-20 09:59N 60°31' E 005°11'4 8.8
2018-May-20 09:30N 60°32' E 005°03'2 3.8
2018-May-20 08:59N 60°33' E 004°59'0 0.6
2018-May-20 08:30N 60°33' E 004°59'4 8.1
2018-May-20 07:59N 60°37' E 004°56'4 8.0
2018-May-20 07:30N 60°41' E 004°52'4 8.0
2018-May-20 07:00N 60°44' E 004°49'4 8.4
2018-May-20 06:30N 60°48' E 004°45'4 7.9
2018-May-20 05:59N 60°52' E 004°46'4 8.8
2018-May-20 05:29N 60°57' E 004°45'4 8.5
2018-May-20 04:59N 61°00' E 004°49'5 9.7
2018-May-20 04:29N 61°03' E 004°57'4 9.1
2018-May-20 04:00N 61°07' E 005°02'4 8.9
2018-May-20 03:30N 61°12' E 005°01'4 8.4
2018-May-20 03:00N 61°15' E 004°55'4 7.9
2018-May-20 02:30N 61°18' E 005°00'4 7.6
2018-May-20 02:00N 61°22' E 005°02'4 9.0
2018-May-20 01:30N 61°26' E 004°58'5 9.4
2018-May-20 01:00N 61°30' E 004°60'5 8.9
2018-May-20 00:30N 61°35' E 004°57'4 9.1
2018-May-20 00:00N 61°39' E 004°59'5 8.8
2018-May-19 23:29N 61°44' E 004°58'4 9.1
2018-May-19 23:00N 61°47' E 005°05'5 9.0
2018-May-19 22:29N 61°49' E 005°13'3 6.0
2018-May-19 22:00N 61°52' E 005°13'2 4.0
2018-May-19 21:30N 61°54' E 005°16'5 9.8
2018-May-19 21:00N 61°55' E 005°26'510.0
2018-May-19 20:30N 61°54' E 005°36'510.0
2018-May-19 20:00N 61°52' E 005°46'5 9.4
2018-May-19 19:30N 61°52' E 005°56'5 9.6
2018-May-19 19:00N 61°51' E 006°06'0 0.6
2018-May-19 18:30N 61°50' E 006°06'0 0.0
2018-May-19 18:00N 61°50' E 006°06'0 0.0
2018-May-19 17:30N 61°50' E 006°06'0 0.0
2018-May-19 17:00N 61°50' E 006°06'0 0.1
2018-May-19 16:30N 61°50' E 006°06'4 8.4
2018-May-19 16:00N 61°52' E 005°57'5 9.1
2018-May-19 15:30N 61°51' E 005°47'5 9.3
2018-May-19 15:00N 61°54' E 005°39'5 9.7
2018-May-19 14:30N 61°55' E 005°29'4 9.1
2018-May-19 14:00N 61°54' E 005°20'5 9.3
2018-May-19 13:30N 61°54' E 005°10'4 7.4
2018-May-19 13:00N 61°57' E 005°09'4 9.0
2018-May-19 12:30N 62°02' E 005°09'5 9.9
2018-May-19 12:00N 62°07' E 005°06'5 9.2
2018-May-19 11:30N 62°11' E 005°04'5 9.0
2018-May-19 11:00N 62°14' E 005°12'5 9.2
2018-May-19 10:30N 62°16' E 005°20'5 9.4
2018-May-19 10:00N 62°18' E 005°29'5 9.3
2018-May-19 09:30N 62°19' E 005°39'1 1.4
2018-May-19 09:00N 62°19' E 005°40'2 4.0
2018-May-19 08:29N 62°20' E 005°45'5 9.4
2018-May-19 08:00N 62°24' E 005°49'5 9.7
2018-May-19 07:30N 62°27' E 005°58'5 9.8
2018-May-19 07:00N 62°29' E 006°08'1 1.1
2018-May-19 06:29N 62°29' E 006°09'0 0.0
2018-May-19 05:59N 62°29' E 006°09'0 0.0
2018-May-19 05:29N 62°29' E 006°09'0 0.0
2018-May-19 04:59N 62°29' E 006°09'0 0.0
2018-May-19 04:29N 62°29' E 006°09'0 0.0
2018-May-19 03:59N 62°29' E 006°09'0 0.0
2018-May-19 03:29N 62°29' E 006°09'0 0.0
2018-May-19 02:59N 62°29' E 006°09'0 0.0
2018-May-19 02:29N 62°29' E 006°09'0 0.0
2018-May-19 01:59N 62°29' E 006°09'0 0.0
2018-May-19 01:29N 62°29' E 006°09'1 2.5
2018-May-19 01:00N 62°29' E 006°11'0 0.8
2018-May-19 00:30N 62°29' E 006°12'0 0.0
2018-May-19 00:00N 62°29' E 006°12'0 0.0
2018-May-18 23:30N 62°29' E 006°12'0 0.0
2018-May-18 23:00N 62°29' E 006°12'0 0.0
2018-May-18 22:30N 62°29' E 006°12'0 0.3
2018-May-18 22:00N 62°29' E 006°12'4 7.6
2018-May-18 21:30N 62°33' E 006°10'5 9.3
2018-May-18 21:00N 62°36' E 006°17'5 9.5
2018-May-18 20:30N 62°39' E 006°24'5 9.8
2018-May-18 20:00N 62°43' E 006°30'5 9.7
2018-May-18 19:30N 62°48' E 006°36'5 9.4
2018-May-18 19:00N 62°52' E 006°42'5 9.4
2018-May-18 18:30N 62°55' E 006°48'5 9.1
2018-May-18 18:00N 62°59' E 006°54'5 9.5
2018-May-18 17:30N 63°00' E 007°04'5 9.8
2018-May-18 17:01N 63°02' E 007°14'5 9.8
2018-May-18 16:31N 63°04' E 007°24'510.0
2018-May-18 16:00N 63°07' E 007°33'5 9.8
2018-May-18 15:31N 63°09' E 007°42'5 9.9
2018-May-18 15:01N 63°12' E 007°52'5 9.9
2018-May-18 14:30N 63°14' E 008°01'5 9.7
2018-May-18 14:00N 63°17' E 008°11'5 9.5
2018-May-18 13:28N 63°20' E 008°20'3 6.0
2018-May-18 13:00N 63°20' E 008°26'0 0.0
2018-May-18 12:30N 63°20' E 008°26'4 8.2
2018-May-18 12:00N 63°23' E 008°19'510.2
2018-May-18 11:30N 63°27' E 008°14'5 9.9
2018-May-18 10:59N 63°32' E 008°14'5 9.6
2018-May-18 10:30N 63°36' E 008°18'4 8.9
2018-May-18 10:00N 63°38' E 008°27'4 8.6
2018-May-18 09:30N 63°39' E 008°36'4 8.3
2018-May-18 09:00N 63°40' E 008°46'4 8.6
2018-May-18 08:30N 63°42' E 008°54'5 9.3
2018-May-18 07:59N 63°47' E 008°58'3 5.9
2018-May-18 07:30N 63°48' E 008°52'2 3.8
2018-May-18 07:00N 63°46' E 008°49'0 0.0
2018-May-18 06:30N 63°46' E 008°49'0 0.0
2018-May-18 06:00N 63°46' E 008°49'0 0.0
2018-May-18 05:30N 63°46' E 008°49'0 0.4
2018-May-18 05:00N 63°46' E 008°49'4 8.6
2018-May-18 04:30N 63°49' E 008°57'5 9.6
2018-May-18 04:00N 63°52' E 009°06'5 9.6
2018-May-18 03:30N 63°54' E 009°16'5 9.8
2018-May-18 03:00N 63°57' E 009°25'5 9.8
2018-May-18 02:30N 63°59' E 009°35'5 9.7
2018-May-18 02:00N 64°02' E 009°44'5 9.4
2018-May-18 01:30N 64°04' E 009°53'5 9.4
2018-May-18 01:00N 64°07' E 010°02'5 9.2
2018-May-18 00:29N 64°11' E 010°09'5 9.2
2018-May-18 00:00N 64°14' E 010°15'4 8.4
2018-May-17 23:29N 64°18' E 010°21'4 8.5
2018-May-17 22:59N 64°21' E 010°26'4 8.6
2018-May-17 22:30N 64°25' E 010°27'4 8.7
2018-May-17 22:00N 64°29' E 010°32'5 9.2
2018-May-17 21:30N 64°33' E 010°37'4 9.2
2018-May-17 21:00N 64°37' E 010°43'5 9.3
2018-May-17 20:29N 64°41' E 010°49'5 9.2
2018-May-17 19:59N 64°44' E 010°57'5 9.2
2018-May-17 19:30N 64°47' E 011°05'4 9.1
2018-May-17 19:00N 64°50' E 011°12'2 3.8
2018-May-17 18:30N 64°52' E 011°15'0 0.0
2018-May-17 18:00N 64°52' E 011°15'0 0.0
2018-May-17 17:30N 64°52' E 011°15'0 0.0
2018-May-17 17:00N 64°52' E 011°15'0 0.0
2018-May-17 16:30N 64°52' E 011°15'0 0.0
2018-May-17 16:00N 64°52' E 011°15'0 0.0
2018-May-17 15:30N 64°52' E 011°15'0 0.0
2018-May-17 15:00N 64°52' E 011°15'0 0.0
2018-May-17 14:30N 64°52' E 011°15'0 0.0
2018-May-17 14:00N 64°52' E 011°15'0 0.0
2018-May-17 13:30N 64°52' E 011°15'0 0.0
2018-May-17 13:00N 64°52' E 011°15'0 0.0
2018-May-17 12:30N 64°52' E 011°15'0 0.0
2018-May-17 12:00N 64°52' E 011°15'0 0.0
2018-May-17 11:30N 64°52' E 011°15'0 0.0
2018-May-17 11:00N 64°52' E 011°15'0 0.0
2018-May-17 10:30N 64°52' E 011°15'0 0.0
2018-May-17 10:00N 64°52' E 011°15'0 0.0
2018-May-17 09:30N 64°52' E 011°15'0 0.0
2018-May-17 09:00N 64°52' E 011°15'0 0.0
2018-May-17 08:30N 64°52' E 011°15'0 0.0
2018-May-17 08:00N 64°52' E 011°15'0 0.0
2018-May-17 07:30N 64°52' E 011°15'0 0.0
2018-May-17 07:00N 64°52' E 011°15'0 0.0
2018-May-17 06:30N 64°52' E 011°15'0 0.0
2018-May-17 06:00N 64°52' E 011°15'0 0.0
2018-May-17 05:30N 64°52' E 011°15'0 0.0
2018-May-17 05:00N 64°52' E 011°15'0 0.0
2018-May-17 04:30N 64°52' E 011°15'0 0.0
2018-May-17 04:00N 64°52' E 011°15'0 0.0
2018-May-17 03:30N 64°52' E 011°15'0 0.0
2018-May-17 03:00N 64°52' E 011°15'0 0.0
2018-May-17 02:30N 64°52' E 011°15'0 0.0
2018-May-17 02:00N 64°52' E 011°15'0 0.0
2018-May-17 01:30N 64°52' E 011°15'0 0.0
2018-May-17 01:00N 64°52' E 011°15'0 0.0
2018-May-17 00:30N 64°52' E 011°15'0 0.0
2018-May-17 00:00N 64°52' E 011°15'0 0.0
2018-May-16 23:30N 64°52' E 011°15'0 0.0
2018-May-16 23:00N 64°52' E 011°15'0 0.0
2018-May-16 22:30N 64°52' E 011°15'0 0.0
2018-May-16 22:00N 64°52' E 011°15'0 0.0
2018-May-16 21:30N 64°52' E 011°15'0 0.0
2018-May-16 21:00N 64°52' E 011°15'0 0.0
2018-May-16 20:30N 64°52' E 011°15'0 0.0
2018-May-16 20:00N 64°52' E 011°15'0 0.0
2018-May-16 19:30N 64°52' E 011°15'0 0.0
2018-May-16 19:00N 64°52' E 011°15'0 0.0
2018-May-16 18:30N 64°52' E 011°15'0 0.0
2018-May-16 18:00N 64°52' E 011°15'0 0.0
2018-May-16 17:30N 64°52' E 011°15'0 0.0
2018-May-16 17:00N 64°52' E 011°15'0 0.0
2018-May-16 16:30N 64°52' E 011°15'0 0.0
2018-May-16 16:00N 64°52' E 011°15'0 0.0
2018-May-16 15:27N 64°52' E 011°15'0 0.0
2018-May-16 15:00N 64°52' E 011°15'0 0.0
2018-May-16 14:30N 64°52' E 011°15'0 0.0
2018-May-16 14:00N 64°52' E 011°15'0 0.0
2018-May-16 13:30N 64°52' E 011°15'0 0.0
2018-May-16 13:00N 64°52' E 011°15'0 0.0
2018-May-16 12:30N 64°52' E 011°15'0 0.0
2018-May-16 12:00N 64°52' E 011°15'0 0.0
2018-May-16 11:30N 64°52' E 011°15'0 0.0
2018-May-16 11:00N 64°52' E 011°15'0 0.0
2018-May-16 10:30N 64°52' E 011°15'0 0.0
2018-May-16 10:00N 64°52' E 011°15'0 0.0
2018-May-16 09:30N 64°52' E 011°15'0 0.0
2018-May-16 09:00N 64°52' E 011°15'0 0.0
2018-May-16 08:30N 64°52' E 011°15'0 0.0
2018-May-16 08:00N 64°52' E 011°15'0 0.4
2018-May-16 07:30N 64°52' E 011°15'0 0.1
2018-May-16 07:00N 64°52' E 011°15'0 0.0
2018-May-16 06:30N 64°52' E 011°15'0 0.0
2018-May-16 06:00N 64°52' E 011°15'0 0.0
2018-May-16 05:30N 64°52' E 011°15'2 3.3
2018-May-16 05:00N 64°53' E 011°18'5 9.9
2018-May-16 04:30N 64°56' E 011°26'5 9.6
2018-May-16 04:00N 64°59' E 011°35'5 9.7
2018-May-16 03:30N 65°03' E 011°43'5 9.8
2018-May-16 03:00N 65°07' E 011°49'5 9.8
2018-May-16 02:30N 65°12' E 011°52'5 9.4
2018-May-16 02:00N 65°16' E 011°56'5 9.7
2018-May-16 01:30N 65°20' E 012°02'5 9.9
2018-May-16 01:00N 65°24' E 012°08'5 8.7
2018-May-16 00:29N 65°28' E 012°12'4 8.3
2018-May-15 23:59N 65°33' E 012°12'5 9.6
2018-May-15 23:30N 65°37' E 012°14'5 9.6
2018-May-15 23:00N 65°42' E 012°16'5 9.7
2018-May-15 22:30N 65°47' E 012°19'5 9.5
2018-May-15 22:00N 65°51' E 012°22'5 9.3
2018-May-15 21:30N 65°56' E 012°24'5 9.8
2018-May-15 21:00N 65°60' E 012°30'510.3
2018-May-15 20:30N 66°04' E 012°39'5 9.9
2018-May-15 20:00N 66°08' E 012°46'510.0
2018-May-15 19:30N 66°12' E 012°52'5 9.7
2018-May-15 19:00N 66°17' E 012°55'510.0
2018-May-15 18:30N 66°22' E 012°57'510.1
2018-May-15 18:00N 66°27' E 012°59'5 9.9
2018-May-15 17:30N 66°32' E 012°58'4 8.9
2018-May-15 17:00N 66°35' E 013°04'5 9.4
2018-May-15 16:30N 66°40' E 013°08'5 9.6
2018-May-15 16:00N 66°44' E 013°14'5 9.6
2018-May-15 15:30N 66°45' E 013°26'2 3.3
2018-May-15 14:59N 66°45' E 013°30'0 0.0
2018-May-15 14:29N 66°45' E 013°30'0 0.0
2018-May-15 13:59N 66°45' E 013°30'0 0.0
2018-May-15 13:29N 66°45' E 013°30'0 0.0
2018-May-15 12:53N 66°45' E 013°30'0 0.0
2018-May-15 12:26N 66°45' E 013°30'0 0.0
2018-May-15 11:59N 66°45' E 013°30'0 0.0
2018-May-15 11:29N 66°45' E 013°30'0 0.0
2018-May-15 10:59N 66°45' E 013°30'0 0.5
2018-May-15 10:30N 66°45' E 013°30'4 7.6
2018-May-15 10:00N 66°49' E 013°30'4 7.9
2018-May-15 09:30N 66°52' E 013°33'5 9.5
2018-May-15 09:00N 66°57' E 013°29'5 9.5
2018-May-15 08:30N 67°02' E 013°30'5 9.7
2018-May-15 08:00N 67°07' E 013°31'5 9.8
2018-May-15 07:30N 67°11' E 013°33'5 9.9
2018-May-15 06:59N 67°16' E 013°35'5 9.9
2018-May-15 06:30N 67°21' E 013°40'510.1
2018-May-15 06:00N 67°25' E 013°46'5 9.8
2018-May-15 05:30N 67°30' E 013°52'5 9.6
2018-May-15 05:00N 67°34' E 013°58'5 9.8
2018-May-15 04:30N 67°38' E 014°04'  

Dump ship's entire track history